Terminal Aerodrome Forecast
Issued by NWS

Home | Current Version | Previous Version | Text Only | Print | Product List | Glossary On
Versions: 1 2 3 4 5 6 7 8 9 10 11 12 13 14 15
707
FTUS43 KOAX 100520
TAFSNY
TAF
KSNY 100520Z 1006/1106 29012KT P6SM SKC
     FM101500 31025G35KT P6SM SKC
     FM102200 32020G30KT P6SM SKC=

USA.gov is the U.S. government's official web portal to all federal, state and local government web resources and services.